createdAt,value
2017-10-31T00:01:15.312Z,74.20
2017-10-31T00:03:42.610Z,74.60
2017-10-31T00:06:09.134Z,73.80
2017-10-31T00:08:35.363Z,73.80
2017-10-31T00:11:01.565Z,73.40
2017-10-31T00:13:28.723Z,74.10
2017-10-31T00:15:55.835Z,73.80
2017-10-31T00:18:22.814Z,73.80
2017-10-31T00:20:49.852Z,73.60
2017-10-31T00:23:16.035Z,73.00
2017-10-31T00:25:42.241Z,73.00
2017-10-31T00:28:08.446Z,73.40
2017-10-31T00:30:34.651Z,73.30
2017-10-31T00:33:01.962Z,73.20
2017-10-31T00:35:28.162Z,73.10
2017-10-31T00:37:54.612Z,73.30
2017-10-31T00:40:20.793Z,73.90
2017-10-31T00:42:47.747Z,74.80
2017-10-31T00:45:14.071Z,74.10
2017-10-31T00:47:40.659Z,74.00
2017-10-31T00:50:06.881Z,74.40
2017-10-31T00:52:33.078Z,75.00
2017-10-31T00:54:59.260Z,74.70
2017-10-31T00:57:26.342Z,74.80
2017-10-31T00:59:52.562Z,75.30
2017-10-31T01:02:19.597Z,75.70
2017-10-31T01:04:45.852Z,75.60
2017-10-31T01:07:12.789Z,75.90
2017-10-31T01:09:38.977Z,75.40
2017-10-31T01:12:05.245Z,76.00
2017-10-31T01:14:32.409Z,75.70
2017-10-31T01:16:58.595Z,76.00
2017-10-31T01:19:24.857Z,76.50
2017-10-31T01:21:52.275Z,76.50
2017-10-31T01:24:19.203Z,75.80
2017-10-31T01:26:45.398Z,76.10
2017-10-31T01:29:12.313Z,76.10
2017-10-31T01:31:39.142Z,76.10
2017-10-31T01:34:05.373Z,75.80
2017-10-31T01:36:31.562Z,75.50
2017-10-31T01:38:58.155Z,75.80
2017-10-31T01:41:26.280Z,76.70
2017-10-31T01:43:52.822Z,76.00
2017-10-31T01:46:19.416Z,76.20
2017-10-31T01:48:46.367Z,75.50
2017-10-31T01:51:13.683Z,75.60
2017-10-31T01:53:40.609Z,75.80
2017-10-31T01:56:07.557Z,76.00
2017-10-31T01:58:33.799Z,76.20
2017-10-31T02:01:00.060Z,76.60
2017-10-31T02:03:27.048Z,76.40
2017-10-31T02:05:53.313Z,76.40
2017-10-31T02:08:19.503Z,76.50
2017-10-31T02:10:46.682Z,76.80
2017-10-31T02:13:13.652Z,76.60
2017-10-31T02:15:39.916Z,76.60
2017-10-31T02:18:06.105Z,76.40
2017-10-31T02:20:32.726Z,76.30
2017-10-31T02:22:59.010Z,76.60
2017-10-31T02:25:25.996Z,77.10
2017-10-31T02:27:52.288Z,76.30
2017-10-31T02:30:18.522Z,76.10
2017-10-31T02:32:46.270Z,76.30
2017-10-31T02:35:13.280Z,76.60
2017-10-31T02:37:40.259Z,76.80
2017-10-31T02:40:06.892Z,76.50
2017-10-31T02:42:33.823Z,76.30
2017-10-31T02:45:00.918Z,76.40
2017-10-31T02:47:27.233Z,76.80
2017-10-31T02:49:54.218Z,77.10
2017-10-31T02:52:20.424Z,76.70
2017-10-31T02:54:46.651Z,76.60
2017-10-31T02:57:12.919Z,76.90
2017-10-31T02:59:39.159Z,77.30
2017-10-31T03:02:05.406Z,77.00
2017-10-31T03:04:32.390Z,77.20
2017-10-31T03:06:59.311Z,76.90
2017-10-31T03:09:26.266Z,76.90
2017-10-31T03:11:53.242Z,76.60
2017-10-31T03:14:20.262Z,76.60
2017-10-31T03:16:47.269Z,76.00
2017-10-31T03:19:14.216Z,75.50
2017-10-31T03:21:40.480Z,75.80
2017-10-31T03:24:07.641Z,76.20
2017-10-31T03:26:34.237Z,77.00
2017-10-31T03:29:01.221Z,77.50
2017-10-31T03:31:27.457Z,77.10
2017-10-31T03:33:53.719Z,77.00
2017-10-31T03:36:20.655Z,77.30
2017-10-31T03:38:47.279Z,77.50
2017-10-31T03:41:14.241Z,77.90
2017-10-31T03:43:41.358Z,78.40
2017-10-31T03:48:35.898Z,77.90
2017-10-31T03:51:17.033Z,78.00
2017-10-31T03:56:17.593Z,77.90
2017-10-31T03:58:44.648Z,77.90
2017-10-31T04:01:10.876Z,79.30
2017-10-31T04:03:37.508Z,78.00
2017-10-31T04:06:03.680Z,77.70
2017-10-31T04:08:29.956Z,77.80
2017-10-31T04:10:56.206Z,77.80
2017-10-31T04:13:23.284Z,77.70
2017-10-31T04:15:49.452Z,78.00
2017-10-31T04:18:17.274Z,77.80
2017-10-31T04:20:43.475Z,78.00
2017-10-31T04:23:10.007Z,77.60
2017-10-31T04:25:36.228Z,77.70
2017-10-31T04:28:04.020Z,77.70
2017-10-31T04:30:30.277Z,77.70
2017-10-31T04:32:56.429Z,77.70
2017-10-31T04:35:22.641Z,77.70
2017-10-31T04:37:49.242Z,77.60
2017-10-31T04:40:15.455Z,78.00
2017-10-31T04:42:44.424Z,78.50
2017-10-31T04:45:10.628Z,78.30
2017-10-31T04:47:36.843Z,78.60
2017-10-31T04:50:03.047Z,78.50
2017-10-31T04:52:30.042Z,78.70
2017-10-31T04:54:56.210Z,78.50
2017-10-31T04:57:23.226Z,78.30
2017-10-31T04:59:49.400Z,78.00
2017-10-31T05:02:15.766Z,78.30
2017-10-31T05:04:42.003Z,78.40
2017-10-31T05:07:08.304Z,78.30
2017-10-31T05:09:34.532Z,78.20
2017-10-31T05:12:00.750Z,77.90
2017-10-31T05:14:27.326Z,77.70
2017-10-31T05:16:53.523Z,76.90
2017-10-31T05:19:19.931Z,77.50
2017-10-31T05:21:46.118Z,77.60
2017-10-31T05:24:12.329Z,77.70
2017-10-31T05:26:38.483Z,77.90
2017-10-31T05:29:04.679Z,78.40
2017-10-31T05:31:31.781Z,78.60
2017-10-31T05:33:57.986Z,78.50
2017-10-31T05:36:24.198Z,78.50
2017-10-31T05:38:50.424Z,78.10
2017-10-31T05:41:16.590Z,78.40
2017-10-31T05:43:42.799Z,78.30
2017-10-31T05:46:08.993Z,78.70
2017-10-31T05:48:35.917Z,79.20
2017-10-31T05:51:02.107Z,79.20
2017-10-31T05:53:28.284Z,79.00
2017-10-31T05:55:55.254Z,79.50
2017-10-31T05:58:22.222Z,79.60
2017-10-31T06:00:48.403Z,78.40
2017-10-31T06:03:15.413Z,77.80
2017-10-31T06:05:41.622Z,78.20
2017-10-31T06:08:07.842Z,78.60
2017-10-31T06:10:34.034Z,77.80
2017-10-31T06:13:00.250Z,77.60
2017-10-31T06:15:26.418Z,77.60
2017-10-31T06:17:53.639Z,77.00
2017-10-31T06:20:20.996Z,77.10
2017-10-31T06:22:53.435Z,77.90
2017-10-31T06:25:25.774Z,77.30
2017-10-31T06:27:58.829Z,76.80
2017-10-31T06:33:24.166Z,76.90
2017-10-31T06:35:50.392Z,76.50
2017-10-31T06:38:19.069Z,76.80
2017-10-31T06:40:45.808Z,77.30
2017-10-31T06:43:12.021Z,77.10
2017-10-31T06:45:39.198Z,76.80
2017-10-31T06:48:05.542Z,76.80
2017-10-31T06:50:32.794Z,76.60
2017-10-31T06:52:59.071Z,76.60
2017-10-31T06:55:26.751Z,77.10
2017-10-31T06:57:52.919Z,77.60
2017-10-31T07:00:19.144Z,77.80
2017-10-31T07:02:47.904Z,78.00
2017-10-31T07:05:14.979Z,78.00
2017-10-31T07:07:41.153Z,78.00
2017-10-31T07:10:07.410Z,78.00
2017-10-31T07:12:33.982Z,77.60
2017-10-31T07:15:00.164Z,77.50
2017-10-31T07:17:26.390Z,77.80
2017-10-31T07:19:52.620Z,77.50
2017-10-31T07:22:18.838Z,78.00
2017-10-31T07:24:45.009Z,78.00
2017-10-31T07:27:11.250Z,77.60
2017-10-31T07:29:37.474Z,76.80
2017-10-31T07:32:04.022Z,78.00
2017-10-31T07:34:31.096Z,78.10
2017-10-31T07:36:57.348Z,77.00
2017-10-31T07:39:25.224Z,77.60
2017-10-31T07:41:51.407Z,77.10
2017-10-31T07:44:17.610Z,77.60
2017-10-31T07:46:43.771Z,77.30
2017-10-31T07:49:09.959Z,76.90
2017-10-31T07:51:36.799Z,77.00
2017-10-31T07:54:03.105Z,77.10
2017-10-31T07:56:29.302Z,76.50
2017-10-31T07:58:57.470Z,75.80
2017-10-31T08:01:23.823Z,75.40
2017-10-31T08:03:50.816Z,75.40
2017-10-31T08:06:17.015Z,74.80
2017-10-31T08:08:43.227Z,74.40
2017-10-31T08:11:10.308Z,74.40
2017-10-31T08:13:37.068Z,74.00
2017-10-31T08:25:44.602Z,73.50
2017-10-31T08:28:11.584Z,73.30
2017-10-31T08:30:37.854Z,73.30
2017-10-31T08:33:04.100Z,71.90
2017-10-31T08:35:30.290Z,71.50
2017-10-31T08:37:58.535Z,70.50
2017-10-31T08:40:24.766Z,70.30
2017-10-31T08:42:51.030Z,69.40
2017-10-31T08:45:18.754Z,69.10
2017-10-31T08:47:44.956Z,69.60
2017-10-31T08:50:11.172Z,70.10
2017-10-31T08:52:37.398Z,70.80
2017-10-31T08:55:03.634Z,70.90
2017-10-31T08:57:29.835Z,71.60
2017-10-31T08:59:56.923Z,72.20
2017-10-31T09:02:23.223Z,72.10
2017-10-31T09:04:53.719Z,72.20
2017-10-31T09:07:19.931Z,72.10
2017-10-31T09:09:46.278Z,71.60
2017-10-31T09:12:12.786Z,71.20
2017-10-31T09:14:39.004Z,71.40
2017-10-31T09:17:05.192Z,71.80
2017-10-31T09:19:31.418Z,71.60
2017-10-31T09:21:57.603Z,71.70
2017-10-31T09:24:24.545Z,72.20
2017-10-31T09:26:50.798Z,72.20
2017-10-31T09:29:17.078Z,72.30
2017-10-31T09:31:43.385Z,73.70
2017-10-31T09:34:10.325Z,72.40
2017-10-31T09:36:36.586Z,72.10
2017-10-31T09:39:03.632Z,72.60
2017-10-31T09:41:30.611Z,69.50
2017-10-31T09:43:56.883Z,68.80
2017-10-31T09:46:23.902Z,67.30
2017-10-31T09:48:50.925Z,67.00
2017-10-31T09:51:17.972Z,66.80
2017-10-31T09:53:44.361Z,66.20
2017-10-31T09:56:11.447Z,66.10
2017-10-31T09:58:38.031Z,66.80
2017-10-31T10:01:04.203Z,65.80
2017-10-31T10:03:30.450Z,66.10
2017-10-31T10:05:57.041Z,65.00
2017-10-31T10:08:24.096Z,65.00
2017-10-31T10:10:51.116Z,64.10
2017-10-31T10:13:17.329Z,64.00
2017-10-31T10:15:43.565Z,63.40
2017-10-31T10:18:09.901Z,63.20
2017-10-31T10:20:36.142Z,62.30
2017-10-31T10:23:02.363Z,63.30
2017-10-31T10:25:29.272Z,62.00
2017-10-31T10:27:55.473Z,61.50
2017-10-31T10:30:22.976Z,62.70
2017-10-31T10:32:50.257Z,62.00
2017-10-31T10:35:17.540Z,61.10
2017-10-31T10:37:43.769Z,60.10
2017-10-31T10:40:10.590Z,58.20
2017-10-31T10:42:38.337Z,56.00
2017-10-31T10:45:04.629Z,56.20
2017-10-31T10:47:31.544Z,54.30
2017-10-31T10:49:57.748Z,52.90
2017-10-31T10:52:24.136Z,53.60
2017-10-31T10:54:52.421Z,52.00
2017-10-31T10:57:18.627Z,52.90
2017-10-31T10:59:46.462Z,51.00
2017-10-31T11:02:12.701Z,51.70
2017-10-31T11:04:38.955Z,51.20
2017-10-31T11:07:05.298Z,50.20
2017-10-31T11:09:32.256Z,48.80
2017-10-31T11:11:59.084Z,49.00
2017-10-31T11:14:26.869Z,48.80
2017-10-31T11:16:53.148Z,49.70
2017-10-31T11:19:19.574Z,50.80
2017-10-31T11:21:45.794Z,51.20
2017-10-31T11:24:12.367Z,49.80
2017-10-31T11:26:40.218Z,46.80
2017-10-31T11:29:06.477Z,45.60
2017-10-31T11:31:32.674Z,46.70
2017-10-31T11:33:59.972Z,47.90
2017-10-31T11:36:28.051Z,49.90
2017-10-31T11:38:54.281Z,52.80
2017-10-31T11:41:21.284Z,53.60
2017-10-31T11:43:47.837Z,53.80
2017-10-31T11:46:14.091Z,54.30
2017-10-31T11:48:40.439Z,53.50
2017-10-31T11:51:06.944Z,53.40
2017-10-31T11:53:34.384Z,55.10
2017-10-31T11:56:01.194Z,55.60
2017-10-31T11:58:29.365Z,55.50
2017-10-31T12:00:56.711Z,55.90
2017-10-31T12:03:26.684Z,55.20
2017-10-31T12:05:58.805Z,52.90
2017-10-31T12:08:25.598Z,52.60
2017-10-31T12:10:52.566Z,52.40
2017-10-31T12:13:19.575Z,52.30
2017-10-31T12:15:46.785Z,52.30
2017-10-31T12:18:14.630Z,51.90
2017-10-31T12:20:41.611Z,49.70
2017-10-31T12:23:08.808Z,49.70
2017-10-31T12:25:35.889Z,50.30
2017-10-31T12:28:02.792Z,50.90
2017-10-31T12:40:09.001Z,50.10
2017-10-31T12:42:35.260Z,49.80
2017-10-31T12:45:02.619Z,48.30
2017-10-31T12:57:09.612Z,50.90
2017-10-31T12:59:35.864Z,51.70
2017-10-31T13:02:02.093Z,51.60
2017-10-31T13:04:28.676Z,52.80
2017-10-31T13:06:56.235Z,53.40
2017-10-31T13:09:23.210Z,54.60
2017-10-31T13:11:49.401Z,53.90
2017-10-31T13:14:15.660Z,54.70
2017-10-31T13:16:41.905Z,54.60
2017-10-31T13:19:08.113Z,55.10
2017-10-31T13:21:34.738Z,55.10
2017-10-31T13:24:01.003Z,55.20
2017-10-31T13:26:28.300Z,56.00
2017-10-31T13:28:56.011Z,55.70
2017-10-31T13:31:23.256Z,56.10
2017-10-31T13:33:50.113Z,56.10
2017-10-31T13:36:16.927Z,56.20
2017-10-31T13:38:45.311Z,55.70
2017-10-31T13:41:12.290Z,54.90
2017-10-31T13:43:39.133Z,54.70
2017-10-31T13:46:07.417Z,54.10
2017-10-31T13:48:34.122Z,54.30
2017-10-31T13:51:00.859Z,54.20
2017-10-31T13:53:28.401Z,53.70
2017-10-31T13:55:54.797Z,52.70
2017-10-31T13:58:22.265Z,52.30
2017-10-31T14:00:49.093Z,51.90
2017-10-31T14:03:15.872Z,52.50
2017-10-31T14:05:42.505Z,52.40
2017-10-31T14:08:09.285Z,51.40
2017-10-31T14:10:37.901Z,52.40
2017-10-31T14:13:04.110Z,52.00
2017-10-31T14:15:30.315Z,52.30
2017-10-31T14:17:57.116Z,52.90
2017-10-31T14:20:25.791Z,51.90
2017-10-31T14:22:53.033Z,52.00
2017-10-31T14:25:19.197Z,52.60
2017-10-31T14:27:46.142Z,53.30
2017-10-31T14:30:12.326Z,53.80
2017-10-31T14:32:38.569Z,52.70
2017-10-31T14:35:04.779Z,52.90
2017-10-31T14:37:30.948Z,52.40
2017-10-31T14:39:57.182Z,52.60
2017-10-31T14:42:23.359Z,52.60
2017-10-31T14:44:50.301Z,53.20
2017-10-31T14:47:16.862Z,52.90
2017-10-31T14:49:43.080Z,52.90
2017-10-31T14:52:10.176Z,52.10
2017-10-31T14:54:36.463Z,52.70
2017-10-31T14:57:02.660Z,52.90
2017-10-31T14:59:29.305Z,52.70
2017-10-31T15:01:56.241Z,53.20
2017-10-31T15:04:22.454Z,53.00
2017-10-31T15:06:48.691Z,53.70
2017-10-31T15:09:15.219Z,54.10
2017-10-31T15:11:41.444Z,54.10
2017-10-31T15:14:07.955Z,53.70
2017-10-31T15:16:34.153Z,53.00
2017-10-31T15:19:00.349Z,53.70
2017-10-31T15:21:27.094Z,54.20
2017-10-31T15:23:53.318Z,54.20
2017-10-31T15:26:19.482Z,53.90
2017-10-31T15:28:45.690Z,54.40
2017-10-31T15:31:11.891Z,54.50
2017-10-31T15:33:38.105Z,54.90
2017-10-31T15:36:04.314Z,55.10
2017-10-31T15:38:30.506Z,55.40
2017-10-31T15:40:56.693Z,55.30
2017-10-31T15:43:22.987Z,55.20
2017-10-31T15:45:49.949Z,55.70
2017-10-31T15:48:16.149Z,56.00
2017-10-31T15:50:42.417Z,55.80
2017-10-31T15:53:08.665Z,55.90
2017-10-31T15:55:36.463Z,56.80
2017-10-31T15:58:02.696Z,56.20
2017-10-31T16:00:29.242Z,56.50
2017-10-31T16:02:56.364Z,57.00
2017-10-31T16:05:22.591Z,57.20
2017-10-31T16:07:49.140Z,57.30
2017-10-31T16:10:15.394Z,57.20
2017-10-31T16:12:41.632Z,57.20
2017-10-31T16:15:08.585Z,57.20
2017-10-31T16:17:34.808Z,57.20
2017-10-31T16:20:01.013Z,57.70
2017-10-31T16:22:27.223Z,58.10
2017-10-31T16:24:54.458Z,57.80
2017-10-31T16:37:00.760Z,58.10
2017-10-31T16:49:07.033Z,58.50
2017-10-31T16:51:33.250Z,58.80
2017-10-31T16:54:00.447Z,59.20
2017-10-31T16:56:26.822Z,59.10
2017-10-31T16:58:53.052Z,59.20
2017-10-31T17:01:20.518Z,59.90
2017-10-31T17:03:46.835Z,59.20
2017-10-31T17:06:13.039Z,59.60
2017-10-31T17:08:39.888Z,59.20
2017-10-31T17:11:06.131Z,59.40
2017-10-31T17:13:33.223Z,59.10
2017-10-31T17:15:59.445Z,59.40
2017-10-31T17:18:28.157Z,59.70
2017-10-31T17:20:54.388Z,59.80
2017-10-31T17:23:20.607Z,60.10
2017-10-31T17:25:47.775Z,60.30
2017-10-31T17:28:14.927Z,60.80
2017-10-31T17:30:42.356Z,60.80
2017-10-31T17:33:08.595Z,60.80
2017-10-31T17:35:34.840Z,60.90
2017-10-31T17:38:01.034Z,60.80
2017-10-31T17:40:27.488Z,61.90
2017-10-31T17:42:53.680Z,62.20
2017-10-31T17:45:19.956Z,63.00
2017-10-31T17:47:46.147Z,63.20
2017-10-31T17:50:12.435Z,63.60
2017-10-31T17:52:39.788Z,64.10
2017-10-31T18:04:46.309Z,64.80
2017-10-31T18:07:13.508Z,65.00
2017-10-31T18:09:40.344Z,64.90
2017-10-31T18:12:06.604Z,66.20
2017-10-31T18:14:32.801Z,66.40
2017-10-31T18:16:59.052Z,65.20
2017-10-31T18:19:25.388Z,64.90
2017-10-31T18:21:52.267Z,65.40
2017-10-31T18:24:18.576Z,65.80
2017-10-31T18:26:45.144Z,65.60
2017-10-31T18:29:12.234Z,66.50
2017-10-31T18:31:38.533Z,64.90
2017-10-31T18:34:04.759Z,64.60
2017-10-31T18:36:32.562Z,64.20
2017-10-31T18:38:59.656Z,64.60
2017-10-31T18:41:25.873Z,63.20
2017-10-31T18:43:52.915Z,62.10
2017-10-31T18:46:19.943Z,62.10
2017-10-31T18:48:46.144Z,62.40
2017-10-31T18:51:12.424Z,63.40
2017-10-31T18:53:40.037Z,63.00
2017-10-31T18:56:07.320Z,62.30
2017-10-31T18:58:33.815Z,62.90
2017-10-31T19:01:02.282Z,62.60
2017-10-31T19:03:29.016Z,62.10
2017-10-31T19:05:55.625Z,62.00
2017-10-31T19:08:22.090Z,62.10
2017-10-31T19:10:48.970Z,62.50
2017-10-31T19:13:15.443Z,63.00
2017-10-31T19:15:41.772Z,62.80
2017-10-31T19:18:08.534Z,62.20
2017-10-31T19:20:35.693Z,62.00
2017-10-31T19:23:01.958Z,61.90
2017-10-31T19:35:10.466Z,63.20
2017-10-31T19:37:36.968Z,63.30
2017-10-31T19:40:03.292Z,64.10
2017-10-31T19:42:30.981Z,63.50
2017-10-31T19:45:01.090Z,63.80
2017-10-31T19:47:27.370Z,64.50
2017-10-31T19:49:55.181Z,64.90
2017-10-31T19:52:26.321Z,64.40
2017-10-31T19:54:55.716Z,63.90
2017-10-31T19:57:24.638Z,63.60
2017-10-31T20:00:02.019Z,63.60
2017-10-31T20:05:10.700Z,64.40
2017-10-31T20:07:36.919Z,63.70
2017-10-31T20:10:05.899Z,64.90
2017-10-31T20:12:32.248Z,65.00
2017-10-31T20:14:59.323Z,64.40
2017-10-31T20:17:29.634Z,64.70
2017-10-31T20:19:56.606Z,64.70
2017-10-31T20:22:23.605Z,65.00
2017-10-31T20:24:50.975Z,64.30
2017-10-31T20:27:17.249Z,64.80
2017-10-31T20:29:43.519Z,65.00
2017-10-31T20:32:14.544Z,64.40
2017-10-31T20:34:44.057Z,64.10
2017-10-31T20:37:10.349Z,64.50
2017-10-31T20:39:37.493Z,64.60
2017-10-31T20:42:03.775Z,64.50
2017-10-31T20:44:30.225Z,64.70
2017-10-31T20:46:58.029Z,64.30
2017-10-31T20:49:24.366Z,65.50
2017-10-31T20:51:50.848Z,65.10
2017-10-31T20:54:17.299Z,65.30
2017-10-31T20:56:43.899Z,65.40
2017-10-31T21:08:50.715Z,65.50
2017-10-31T21:11:18.848Z,65.60
2017-10-31T21:13:47.985Z,65.70
2017-10-31T21:16:14.787Z,65.60
2017-10-31T21:18:41.946Z,65.50
2017-10-31T21:21:09.994Z,65.70
2017-10-31T21:23:37.223Z,65.50
2017-10-31T21:26:06.317Z,65.50
2017-10-31T21:28:32.610Z,65.50
2017-10-31T21:30:58.985Z,65.60
2017-10-31T21:33:25.527Z,65.50
2017-10-31T21:35:52.149Z,66.00
2017-10-31T21:47:59.108Z,66.20
2017-10-31T21:50:25.402Z,66.10
2017-10-31T21:52:51.967Z,66.30
2017-10-31T21:55:18.551Z,66.10
2017-10-31T21:57:45.135Z,67.00
2017-10-31T22:00:11.436Z,67.10
2017-10-31T22:02:39.173Z,68.10
2017-10-31T22:05:06.521Z,68.00
2017-10-31T22:07:32.993Z,67.80
2017-10-31T22:10:01.129Z,68.60
2017-10-31T22:12:27.436Z,68.90
2017-10-31T22:14:53.635Z,69.00
2017-10-31T22:17:19.861Z,69.00
2017-10-31T22:19:46.992Z,69.40
2017-10-31T22:22:13.202Z,69.40
2017-10-31T22:24:39.427Z,69.50
2017-10-31T22:27:06.513Z,70.00
2017-10-31T22:29:32.782Z,69.50
2017-10-31T22:31:59.021Z,69.60
2017-10-31T22:34:25.808Z,69.40
2017-10-31T22:36:52.759Z,69.90
2017-10-31T22:39:19.002Z,69.50
2017-10-31T22:41:45.672Z,69.80
2017-10-31T22:44:11.864Z,69.80
2017-10-31T22:46:39.478Z,69.80
2017-10-31T22:49:06.209Z,69.50
2017-10-31T22:51:33.241Z,69.00
2017-10-31T22:54:00.452Z,69.50
2017-10-31T22:56:27.363Z,69.60
2017-10-31T22:58:54.193Z,69.40
2017-10-31T23:01:21.333Z,69.40
2017-10-31T23:03:49.036Z,69.30
2017-10-31T23:06:15.326Z,69.20
2017-10-31T23:08:43.943Z,69.00
2017-10-31T23:11:10.288Z,69.40
2017-10-31T23:13:38.522Z,69.60
2017-10-31T23:16:05.183Z,69.10
2017-10-31T23:18:31.533Z,69.40
2017-10-31T23:20:58.659Z,69.50
2017-10-31T23:23:26.336Z,69.30
2017-10-31T23:25:54.374Z,69.60
2017-10-31T23:28:20.995Z,69.30
2017-10-31T23:30:47.693Z,69.70
2017-10-31T23:33:14.146Z,69.50
2017-10-31T23:35:41.902Z,69.30
2017-10-31T23:38:08.722Z,69.70
2017-10-31T23:40:35.961Z,69.30
2017-10-31T23:43:02.531Z,69.60
2017-10-31T23:45:29.602Z,70.50
2017-10-31T23:47:56.426Z,69.60
2017-10-31T23:50:23.054Z,69.70
2017-10-31T23:52:49.383Z,69.70
2017-10-31T23:55:16.492Z,69.60
2017-10-31T23:57:43.702Z,69.80
